createdAt,value
2022-11-26T00:02:29.345Z,101238.34
2022-11-26T00:05:19.255Z,101248.50
2022-11-26T00:08:21.057Z,101240.50
2022-11-26T00:11:17.349Z,101240.66
2022-11-26T00:14:14.805Z,101235.69
2022-11-26T00:17:04.191Z,101230.03
2022-11-26T00:19:53.577Z,101234.56
2022-11-26T00:22:46.828Z,101223.91
2022-11-26T00:25:43.571Z,101226.34
2022-11-26T00:28:37.218Z,101229.75
2022-11-26T00:31:26.466Z,101197.78
2022-11-26T00:34:15.883Z,101214.47
2022-11-26T00:37:05.326Z,101215.06
2022-11-26T00:39:55.381Z,101205.06
2022-11-26T00:42:44.549Z,101205.09
2022-11-26T00:45:35.234Z,101199.28
2022-11-26T00:48:24.598Z,101206.41
2022-11-26T00:51:16.672Z,101180.06
2022-11-26T00:54:07.406Z,101189.28
2022-11-26T00:56:57.971Z,101165.66
2022-11-26T00:59:47.233Z,101198.69
2022-11-26T01:02:38.072Z,101173.31
2022-11-26T01:05:33.642Z,101171.69
2022-11-26T01:08:31.017Z,101179.94
2022-11-26T01:11:23.428Z,101169.94
2022-11-26T01:14:17.727Z,101166.91
2022-11-26T01:17:11.082Z,101170.91
2022-11-26T01:20:01.886Z,101162.50
2022-11-26T01:22:52.154Z,101147.19
2022-11-26T01:25:42.860Z,101158.16
2022-11-26T01:28:32.228Z,101162.38
2022-11-26T01:31:24.087Z,101147.50
2022-11-26T01:34:13.829Z,101166.25
2022-11-26T01:37:04.795Z,101171.91
2022-11-26T01:39:54.327Z,101158.03
2022-11-26T01:42:48.184Z,101154.97
2022-11-26T01:45:37.442Z,101153.03
2022-11-26T01:48:34.221Z,101150.94
2022-11-26T01:51:26.970Z,101154.16
2022-11-26T01:54:19.113Z,101137.19
2022-11-26T01:57:14.308Z,101143.16
2022-11-26T02:00:04.301Z,101153.34
2022-11-26T02:03:03.261Z,101148.53
2022-11-26T02:06:00.379Z,101142.16
2022-11-26T02:08:50.214Z,101151.25
2022-11-26T02:11:41.708Z,101138.81
2022-11-26T02:14:37.210Z,101120.84
2022-11-26T02:17:35.001Z,101127.59
2022-11-26T02:20:49.961Z,101127.59
2022-11-26T02:24:05.346Z,101111.78
2022-11-26T02:27:44.896Z,101113.38
2022-11-26T02:30:41.098Z,101105.63
2022-11-26T02:33:36.237Z,101105.63
2022-11-26T02:36:31.366Z,101088.69
2022-11-26T02:39:23.138Z,101101.47
2022-11-26T02:42:27.055Z,101086.94
2022-11-26T02:45:21.081Z,101088.88
2022-11-26T02:48:16.823Z,101094.66
2022-11-26T02:51:11.470Z,101092.41
2022-11-26T02:54:01.863Z,101085.59
2022-11-26T02:56:53.140Z,101082.56
2022-11-26T02:59:43.704Z,101078.19
2022-11-26T03:02:38.436Z,101074.31
2022-11-26T03:05:33.178Z,101076.41
2022-11-26T03:08:23.364Z,101053.97
2022-11-26T03:11:12.879Z,101053.16
2022-11-26T03:14:02.142Z,101061.69
2022-11-26T03:16:51.548Z,101044.13
2022-11-26T03:19:40.954Z,101050.22
2022-11-26T03:22:31.715Z,101043.78
2022-11-26T03:25:21.150Z,101034.56
2022-11-26T03:28:10.364Z,101029.59
2022-11-26T03:30:59.634Z,101016.97
2022-11-26T03:33:48.928Z,101029.59
2022-11-26T03:36:38.170Z,101015.88
2022-11-26T03:39:28.941Z,101009.84
2022-11-26T03:42:18.530Z,101015.06
2022-11-26T03:45:09.060Z,101017.81
2022-11-26T03:47:58.569Z,100998.72
2022-11-26T03:50:47.996Z,101017.63
2022-11-26T03:53:37.288Z,101008.75
2022-11-26T03:56:28.004Z,101005.19
2022-11-26T03:59:17.402Z,101005.34
2022-11-26T04:02:06.996Z,101001.78
2022-11-26T04:04:56.220Z,101012.13
2022-11-26T04:07:45.537Z,101001.94
2022-11-26T04:10:34.936Z,100992.75
2022-11-26T04:13:25.818Z,100986.75
2022-11-26T04:16:15.177Z,100982.22
2022-11-26T04:19:04.658Z,100985.31
2022-11-26T04:21:54.026Z,100984.19
2022-11-26T04:24:43.396Z,100980.63
2022-11-26T04:27:32.878Z,100976.75
2022-11-26T04:30:23.652Z,100990.34
2022-11-26T04:33:12.994Z,100985.31
2022-11-26T04:36:02.310Z,100967.84
2022-11-26T04:38:51.553Z,100969.97
2022-11-26T04:41:42.956Z,100968.34
2022-11-26T04:44:33.642Z,100961.09
2022-11-26T04:47:24.349Z,100964.31
2022-11-26T04:50:14.285Z,100952.19
2022-11-26T04:53:03.666Z,100954.94
2022-11-26T04:55:54.167Z,100962.38
2022-11-26T04:58:43.405Z,100969.94
2022-11-26T05:01:32.712Z,100965.25
2022-11-26T05:04:23.383Z,100954.31
2022-11-26T05:07:12.829Z,100955.59
2022-11-26T05:10:02.459Z,100951.38
2022-11-26T05:12:51.712Z,100943.31
2022-11-26T05:15:41.035Z,100936.53
2022-11-26T05:18:30.352Z,100931.03
2022-11-26T05:21:20.998Z,100938.13
2022-11-26T05:24:10.524Z,100932.16
2022-11-26T05:26:59.920Z,100933.16
2022-11-26T05:29:49.313Z,100930.06
2022-11-26T05:32:38.736Z,100923.59
2022-11-26T05:35:28.095Z,100924.72
2022-11-26T05:38:18.902Z,100928.78
2022-11-26T05:41:08.403Z,100920.03
2022-11-26T05:43:57.722Z,100885.50
2022-11-26T05:46:47.242Z,100914.06
2022-11-26T05:49:36.511Z,100919.25
2022-11-26T05:52:27.397Z,100913.75
2022-11-26T05:55:18.296Z,100908.59
2022-11-26T05:58:09.762Z,100895.50
2022-11-26T06:00:59.082Z,100886.28
2022-11-26T06:03:48.492Z,100893.56
2022-11-26T06:06:38.106Z,100878.03
2022-11-26T06:09:27.374Z,100867.38
2022-11-26T06:12:18.129Z,100867.06
2022-11-26T06:15:08.909Z,100878.53
2022-11-26T06:17:58.448Z,100865.13
2022-11-26T06:20:47.859Z,100869.00
2022-11-26T06:23:37.629Z,100872.88
2022-11-26T06:26:27.202Z,100868.38
2022-11-26T06:29:18.072Z,100852.84
2022-11-26T06:32:07.441Z,100843.66
2022-11-26T06:34:56.766Z,100853.31
2022-11-26T06:37:46.053Z,100847.34
2022-11-26T06:40:35.418Z,100849.31
2022-11-26T06:43:24.685Z,100854.75
2022-11-26T06:46:15.641Z,100848.28
2022-11-26T06:49:07.325Z,100825.97
2022-11-26T06:51:56.790Z,100828.53
2022-11-26T06:54:46.181Z,100830.44
2022-11-26T06:57:35.523Z,100818.50
2022-11-26T07:00:25.075Z,100824.94
2022-11-26T07:03:19.744Z,100827.50
2022-11-26T07:06:18.958Z,100824.41
2022-11-26T07:09:11.688Z,100818.91
2022-11-26T07:12:00.939Z,100820.66
2022-11-26T07:14:50.378Z,100815.19
2022-11-26T07:17:39.767Z,100817.44
2022-11-26T07:20:30.460Z,100810.78
2022-11-26T07:23:19.784Z,100810.66
2022-11-26T07:26:12.784Z,100796.38
2022-11-26T07:29:02.077Z,100790.34
2022-11-26T07:31:51.535Z,100792.81
2022-11-26T07:34:41.019Z,100786.50
2022-11-26T07:37:33.355Z,100756.53
2022-11-26T07:40:22.952Z,100760.72
2022-11-26T07:43:12.238Z,100767.41
2022-11-26T07:46:03.724Z,100769.81
2022-11-26T07:48:53.231Z,100752.81
2022-11-26T07:51:42.730Z,100755.22
2022-11-26T07:54:33.559Z,100752.13
2022-11-26T07:57:23.120Z,100753.41
2022-11-26T08:00:13.998Z,100749.72
2022-11-26T08:03:03.391Z,100744.34
2022-11-26T08:05:52.851Z,100724.28
2022-11-26T08:08:43.202Z,100737.16
2022-11-26T08:11:35.452Z,100726.03
2022-11-26T08:14:25.202Z,100733.50
2022-11-26T08:17:14.552Z,100723.41
2022-11-26T08:20:03.830Z,100741.00
2022-11-26T08:22:53.387Z,100712.34
2022-11-26T08:26:05.994Z,100714.97
2022-11-26T08:28:54.487Z,100696.88
2022-11-26T08:31:46.498Z,100709.75
2022-11-26T08:34:36.527Z,100716.16
2022-11-26T08:37:26.257Z,100721.44
2022-11-26T08:40:16.064Z,100722.09
2022-11-26T08:43:05.677Z,100712.50
2022-11-26T08:45:58.023Z,100725.22
2022-11-26T08:48:47.331Z,100727.38
2022-11-26T08:51:36.838Z,100728.50
2022-11-26T08:54:26.585Z,100721.53
2022-11-26T08:57:15.887Z,100732.31
2022-11-26T09:00:06.526Z,100716.69
2022-11-26T09:02:57.330Z,100702.94
2022-11-26T09:05:46.643Z,100693.53
2022-11-26T09:08:58.072Z,100708.91
2022-11-26T09:11:51.753Z,100723.94
2022-11-26T09:14:42.573Z,100697.34
2022-11-26T09:17:32.377Z,100705.16
2022-11-26T09:20:23.314Z,100702.91
2022-11-26T09:23:12.558Z,100700.88
2022-11-26T09:26:01.857Z,100689.44
2022-11-26T09:28:51.542Z,100695.88
2022-11-26T09:32:00.851Z,100691.72
2022-11-26T09:34:50.262Z,100686.59
2022-11-26T09:37:41.025Z,100714.19
2022-11-26T09:40:42.333Z,100694.66
2022-11-26T09:43:41.205Z,100692.50
2022-11-26T09:46:45.495Z,100693.31
2022-11-26T09:50:04.686Z,100679.03
2022-11-26T09:53:02.747Z,100671.72
2022-11-26T09:55:54.864Z,100679.19
2022-11-26T09:58:52.100Z,100673.78
2022-11-26T10:01:42.709Z,100669.22
2022-11-26T10:04:37.807Z,100671.38
2022-11-26T10:07:54.614Z,100680.09
2022-11-26T10:10:53.910Z,100669.22
2022-11-26T10:13:51.702Z,100669.22
2022-11-26T10:16:48.458Z,100653.28
2022-11-26T10:19:51.025Z,100662.00
2022-11-26T10:22:56.739Z,100656.81
2022-11-26T10:25:51.372Z,100652.59
2022-11-26T10:28:46.781Z,100649.25
2022-11-26T10:31:36.738Z,100665.66
2022-11-26T10:34:39.454Z,100646.16
2022-11-26T10:37:30.709Z,100653.41
2022-11-26T10:40:25.557Z,100644.34
2022-11-26T10:43:23.940Z,100634.69
2022-11-26T10:46:35.834Z,100633.19
2022-11-26T10:49:27.823Z,100631.97
2022-11-26T10:52:20.664Z,100623.50
2022-11-26T10:55:22.732Z,100642.19
2022-11-26T10:58:20.760Z,100618.78
2022-11-26T11:01:14.393Z,100625.91
2022-11-26T11:04:08.125Z,100615.25
2022-11-26T11:06:58.258Z,100612.72
2022-11-26T11:09:47.545Z,100619.25
2022-11-26T11:12:37.843Z,100614.19
2022-11-26T11:15:32.195Z,100613.63
2022-11-26T11:18:23.284Z,100618.78
2022-11-26T11:21:19.039Z,100606.19
2022-11-26T11:24:11.320Z,100607.88
2022-11-26T11:27:01.567Z,100599.03
2022-11-26T11:29:53.061Z,100608.13
2022-11-26T11:32:43.729Z,100604.22
2022-11-26T11:35:32.977Z,100591.69
2022-11-26T11:38:26.315Z,100577.81
2022-11-26T11:41:28.613Z,100590.44
2022-11-26T11:44:22.310Z,100561.19
2022-11-26T11:47:41.128Z,100571.16
2022-11-26T11:50:39.234Z,100554.16
2022-11-26T11:53:38.343Z,100580.09
2022-11-26T11:56:35.327Z,100548.19
2022-11-26T12:00:09.821Z,100559.88
2022-11-26T12:03:45.134Z,100552.69
2022-11-26T12:06:46.724Z,100556.72
2022-11-26T12:09:45.914Z,100538.13
2022-11-26T12:12:39.568Z,100539.94
2022-11-26T12:15:32.979Z,100535.09
2022-11-26T12:18:27.680Z,100528.78
2022-11-26T12:21:20.834Z,100519.97
2022-11-26T12:24:15.681Z,100525.94
2022-11-26T12:27:12.873Z,100522.97
2022-11-26T12:30:11.676Z,100518.59
2022-11-26T12:33:08.284Z,100509.91
2022-11-26T12:36:02.986Z,100517.94
2022-11-26T12:38:56.031Z,100508.25
2022-11-26T12:41:54.377Z,100506.88
2022-11-26T12:44:49.336Z,100504.94
2022-11-26T12:47:43.781Z,100489.25
2022-11-26T12:50:43.201Z,100467.09
2022-11-26T12:53:40.358Z,100459.53
2022-11-26T12:56:35.970Z,100451.84
2022-11-26T12:59:34.329Z,100452.75
2022-11-26T13:02:27.811Z,100448.63
2022-11-26T13:05:21.082Z,100442.88
2022-11-26T13:08:27.424Z,100423.13
2022-11-26T13:11:32.005Z,100410.22
2022-11-26T13:14:33.460Z,100408.22
2022-11-26T13:17:31.154Z,100410.66
2022-11-26T13:20:47.826Z,100411.31
2022-11-26T13:24:06.926Z,100400.91
2022-11-26T13:27:20.673Z,100371.19
2022-11-26T13:30:22.489Z,100367.72
2022-11-26T13:33:34.870Z,100367.03
2022-11-26T13:37:30.611Z,100344.44
2022-11-26T13:40:44.825Z,100324.81
2022-11-26T13:44:25.163Z,100324.94
2022-11-26T13:47:22.876Z,100317.31
2022-11-26T13:50:18.952Z,100309.97
2022-11-26T13:53:25.037Z,100301.03
2022-11-26T13:56:20.571Z,100284.16
2022-11-26T13:59:21.626Z,100272.09
2022-11-26T14:02:44.485Z,100271.28
2022-11-26T14:06:09.215Z,100250.69
2022-11-26T14:08:59.246Z,100255.13
2022-11-26T14:11:57.146Z,100258.22
2022-11-26T14:14:47.974Z,100248.13
2022-11-26T14:17:57.666Z,100229.69
2022-11-26T14:21:19.871Z,100214.88
2022-11-26T14:24:09.128Z,100213.09
2022-11-26T14:26:58.386Z,100209.25
2022-11-26T14:29:54.706Z,100204.28
2022-11-26T14:32:55.545Z,100205.69
2022-11-26T14:35:56.939Z,100188.09
2022-11-26T14:38:46.248Z,100195.28
2022-11-26T14:41:51.513Z,100189.06
2022-11-26T14:44:41.001Z,100172.97
2022-11-26T14:47:31.800Z,100173.22
2022-11-26T14:50:25.643Z,100173.69
2022-11-26T14:53:14.914Z,100185.84
2022-11-26T14:56:06.178Z,100165.75
2022-11-26T14:58:59.966Z,100166.50
2022-11-26T15:01:49.287Z,100151.19
2022-11-26T15:04:39.413Z,100150.31
2022-11-26T15:07:31.912Z,100156.25
2022-11-26T15:10:22.667Z,100157.16
2022-11-26T15:13:17.887Z,100164.59
2022-11-26T15:16:29.132Z,100159.00
2022-11-26T15:19:18.608Z,100153.50
2022-11-26T15:22:09.902Z,100137.34
2022-11-26T15:25:00.833Z,100123.44
2022-11-26T15:27:59.105Z,100129.25
2022-11-26T15:30:57.695Z,100105.78
2022-11-26T15:33:47.965Z,100126.94
2022-11-26T15:36:37.457Z,100118.31
2022-11-26T15:39:31.172Z,100115.13
2022-11-26T15:42:32.637Z,100126.06
2022-11-26T15:45:24.250Z,100132.72
2022-11-26T15:48:28.059Z,100124.19
2022-11-26T15:51:36.085Z,100117.94
2022-11-26T15:54:43.450Z,100112.44
2022-11-26T15:57:42.200Z,100101.72
2022-11-26T16:00:37.261Z,100076.75
2022-11-26T16:03:46.081Z,100063.34
2022-11-26T16:06:38.037Z,100060.06
2022-11-26T16:09:32.721Z,100072.31
2022-11-26T16:12:32.970Z,100073.78
2022-11-26T16:15:27.406Z,100080.97
2022-11-26T16:18:21.672Z,100070.28
2022-11-26T16:21:22.425Z,100066.50
2022-11-26T16:24:31.850Z,100041.78
2022-11-26T16:27:31.709Z,100019.41
2022-11-26T16:30:22.759Z,100027.59
2022-11-26T16:33:12.317Z,100052.38
2022-11-26T16:36:02.860Z,100048.63
2022-11-26T16:38:53.306Z,100042.69
2022-11-26T16:41:42.807Z,100029.25
2022-11-26T16:44:32.384Z,100043.81
2022-11-26T16:47:28.865Z,100016.47
2022-11-26T16:50:20.998Z,100011.75
2022-11-26T16:53:10.967Z,100005.41
2022-11-26T16:56:00.783Z,99995.72
2022-11-26T16:58:51.183Z,99975.66
2022-11-26T17:01:40.384Z,99993.66
2022-11-26T17:04:31.345Z,100004.66
2022-11-26T17:07:23.877Z,99975.97
2022-11-26T17:10:16.369Z,99987.72
2022-11-26T17:13:05.766Z,99991.69
2022-11-26T17:15:55.294Z,99952.34
2022-11-26T17:18:44.946Z,99962.69
2022-11-26T17:21:35.605Z,99962.69
2022-11-26T17:24:31.164Z,99966.81
2022-11-26T17:27:23.542Z,99949.88
2022-11-26T17:30:18.636Z,99944.78
2022-11-26T17:33:08.182Z,99950.66
2022-11-26T17:35:57.991Z,99919.84
2022-11-26T17:38:49.398Z,99903.41
2022-11-26T17:41:38.650Z,99921.97
2022-11-26T17:44:27.865Z,99925.41
2022-11-26T17:47:18.611Z,99914.97
2022-11-26T17:50:15.946Z,99896.13
2022-11-26T17:53:05.274Z,99894.72
2022-11-26T17:55:56.005Z,99884.44
2022-11-26T17:58:45.860Z,99896.75
2022-11-26T18:01:35.178Z,99892.47
2022-11-26T18:04:25.056Z,99891.31
2022-11-26T18:07:17.752Z,99843.63
2022-11-26T18:10:11.948Z,99823.78
2022-11-26T18:13:02.765Z,99822.91
2022-11-26T18:16:00.500Z,99819.75
2022-11-26T18:18:49.809Z,99820.06
2022-11-26T18:21:39.720Z,99822.69
2022-11-26T18:24:29.555Z,99822.25
2022-11-26T18:27:19.033Z,99820.22
2022-11-26T18:30:10.972Z,99816.59
2022-11-26T18:33:00.353Z,99824.84
2022-11-26T18:35:52.529Z,99820.13
2022-11-26T18:38:41.869Z,99802.81
2022-11-26T18:41:31.143Z,99792.63
2022-11-26T18:44:20.545Z,99793.56
2022-11-26T18:47:11.332Z,99793.34
2022-11-26T18:50:00.615Z,99788.66
2022-11-26T18:52:49.853Z,99793.00
2022-11-26T18:55:41.290Z,99790.47
2022-11-26T18:58:31.946Z,99792.94
2022-11-26T19:01:24.637Z,99789.44
2022-11-26T19:04:15.359Z,99768.19
2022-11-26T19:07:04.668Z,99735.16
2022-11-26T19:09:54.004Z,99734.91
2022-11-26T19:12:43.448Z,99719.31
2022-11-26T19:15:33.239Z,99749.59
2022-11-26T19:18:22.557Z,99753.69
2022-11-26T19:21:21.272Z,99740.78
2022-11-26T19:24:11.888Z,99747.66
2022-11-26T19:27:01.524Z,99754.09
2022-11-26T19:29:50.876Z,99749.13
2022-11-26T19:32:40.219Z,99756.09
2022-11-26T19:35:29.517Z,99738.06
2022-11-26T19:38:20.319Z,99736.00
2022-11-26T19:41:09.696Z,99729.44
2022-11-26T19:44:01.358Z,99736.56
2022-11-26T19:46:51.321Z,99729.53
2022-11-26T19:49:40.817Z,99725.22
2022-11-26T19:52:30.339Z,99752.81
2022-11-26T19:55:21.335Z,99730.69
2022-11-26T19:58:10.589Z,99724.03
2022-11-26T20:01:00.251Z,99709.44
2022-11-26T20:03:49.594Z,99741.72
2022-11-26T20:06:39.487Z,99723.94
2022-11-26T20:09:28.824Z,99736.25
2022-11-26T20:12:19.676Z,99723.91
2022-11-26T20:15:11.182Z,99720.09
2022-11-26T20:18:00.571Z,99731.50
2022-11-26T20:20:59.719Z,99747.59
2022-11-26T20:23:50.154Z,99749.91
2022-11-26T20:26:42.202Z,99750.72
2022-11-26T20:29:32.990Z,99759.94
2022-11-26T20:32:22.856Z,99744.81
2022-11-26T20:35:13.027Z,99771.59
2022-11-26T20:38:02.375Z,99755.56
2022-11-26T20:40:51.701Z,99747.56
2022-11-26T20:43:41.361Z,99770.50
2022-11-26T20:46:32.335Z,99773.66
2022-11-26T20:49:21.831Z,99760.25
2022-11-26T20:52:11.146Z,99783.53
2022-11-26T20:55:00.617Z,99773.53
2022-11-26T20:57:50.644Z,99785.41
2022-11-26T21:00:43.444Z,99792.16
2022-11-26T21:03:34.316Z,99815.94
2022-11-26T21:06:30.300Z,99810.50
2022-11-26T21:09:20.137Z,99821.81
2022-11-26T21:12:09.602Z,99826.31
2022-11-26T21:14:59.373Z,99832.47
2022-11-26T21:17:48.850Z,99844.97
2022-11-26T21:20:42.264Z,99839.88
2022-11-26T21:23:31.599Z,99863.38
2022-11-26T21:26:23.371Z,99877.88
2022-11-26T21:29:13.690Z,99880.19
2022-11-26T21:32:03.222Z,99895.41
2022-11-26T21:34:53.283Z,99922.53
2022-11-26T21:37:44.267Z,99940.19
2022-11-26T21:40:34.283Z,99918.81
2022-11-26T21:43:23.769Z,99946.59
2022-11-26T21:46:18.430Z,99950.94
2022-11-26T21:49:08.915Z,99957.50
2022-11-26T21:51:58.801Z,99984.97
2022-11-26T21:54:49.665Z,99991.47
2022-11-26T21:57:39.118Z,99991.72
2022-11-26T22:00:28.670Z,100001.75
2022-11-26T22:03:18.261Z,100003.09
2022-11-26T22:06:08.312Z,100016.97
2022-11-26T22:08:58.303Z,100012.25
2022-11-26T22:11:49.057Z,100015.50
2022-11-26T22:14:38.424Z,100024.72
2022-11-26T22:17:27.780Z,100026.97
2022-11-26T22:20:17.527Z,100050.91
2022-11-26T22:23:06.917Z,100046.38
2022-11-26T22:25:56.207Z,100047.84
2022-11-26T22:28:47.334Z,100043.94
2022-11-26T22:31:38.833Z,100057.56
2022-11-26T22:34:29.234Z,100074.84
2022-11-26T22:37:18.555Z,100088.50
2022-11-26T22:40:10.128Z,100092.03
2022-11-26T22:42:59.884Z,100103.84
2022-11-26T22:45:50.564Z,100110.38
2022-11-26T22:48:40.274Z,100122.41
2022-11-26T22:51:32.534Z,100127.47
2022-11-26T22:54:22.261Z,100124.59
2022-11-26T22:57:12.049Z,100132.28
2022-11-26T23:00:01.579Z,100152.19
2022-11-26T23:02:52.694Z,100171.41
2022-11-26T23:05:42.194Z,100170.75
2022-11-26T23:08:31.723Z,100161.13
2022-11-26T23:11:26.947Z,100178.66
2022-11-26T23:14:16.272Z,100186.75
2022-11-26T23:17:05.493Z,100186.44
2022-11-26T23:19:56.305Z,100194.78
2022-11-26T23:22:45.844Z,100197.53
2022-11-26T23:25:39.082Z,100203.47
2022-11-26T23:28:28.437Z,100198.78
2022-11-26T23:31:21.445Z,100191.34
2022-11-26T23:34:12.270Z,100203.13
2022-11-26T23:37:03.153Z,100201.19
2022-11-26T23:39:52.910Z,100212.16
2022-11-26T23:42:42.315Z,100219.69
2022-11-26T23:45:31.638Z,100235.03
2022-11-26T23:48:20.889Z,100235.63
2022-11-26T23:51:12.321Z,100213.53
2022-11-26T23:54:03.403Z,100232.75
2022-11-26T23:56:52.651Z,100228.63
2022-11-26T23:59:42.208Z,100236.53
